Time;durP1;ratioP1;P1;durP2;ratioP2;P2;SDS_P1;SDS_P2;PMS_P1;PMS_P2;Temp;Humidity;BMP_temperature;BMP_pressure;BME280_temperature;BME280_humidity;BME280_pressure;Samples;Min_cycle;Max_cycle;Signal;HPM_P1;HPM_P2
2023/06/01 00:01:27;;;;;;;7.45;3.75;;;17.10;69.60;;;;;;5081282;28;20603;-77
2023/06/01 00:04:16;;;;;;;6.60;3.40;;;17.00;70.80;;;;;;5067257;28;20244;-76
2023/06/01 00:07:08;;;;;;;8.75;4.07;;;16.80;68.30;;;;;;5062938;28;20224;-76
2023/06/01 00:09:57;;;;;;;6.28;3.78;;;16.80;69.70;;;;;;5063195;28;20212;-75
2023/06/01 00:12:45;;;;;;;6.43;3.42;;;16.90;69.80;;;;;;5076768;28;20707;-75
2023/06/01 00:15:35;;;;;;;5.22;3.63;;;16.80;70.60;;;;;;5063897;28;20244;-79
2023/06/01 00:18:26;;;;;;;11.93;3.78;;;16.90;69.90;;;;;;5066233;28;20984;-79
2023/06/01 00:21:15;;;;;;;7.53;3.63;;;17.00;69.90;;;;;;5065882;28;20262;-81
2023/06/01 00:24:06;;;;;;;8.88;3.58;;;16.90;70.30;;;;;;5071160;28;20234;-80
2023/06/01 00:26:55;;;;;;;7.47;3.80;;;16.90;68.90;;;;;;5059722;28;20228;-76
2023/06/01 00:29:43;;;;;;;5.88;3.53;;;16.90;70.80;;;;;;5080469;28;20221;-76
2023/06/01 00:32:34;;;;;;;7.38;3.50;;;16.90;70.10;;;;;;5071211;28;20240;-75
2023/06/01 00:35:23;;;;;;;6.32;3.63;;;16.90;70.20;;;;;;5057627;28;20332;-76
2023/06/01 00:38:12;;;;;;;7.13;3.20;;;16.90;69.90;;;;;;5059944;28;20220;-76
2023/06/01 00:41:04;;;;;;;6.47;3.83;;;16.90;70.00;;;;;;5052409;28;20262;-76
2023/06/01 00:43:53;;;;;;;4.97;3.40;;;16.90;68.60;;;;;;5053596;28;20224;-76
2023/06/01 00:46:41;;;;;;;6.20;3.55;;;16.90;71.30;;;;;;5050251;28;20917;-76
2023/06/01 00:49:31;;;;;;;5.30;2.97;;;16.90;69.00;;;;;;5061357;28;20243;-83
2023/06/01 00:52:20;;;;;;;5.55;3.55;;;16.80;69.00;;;;;;5059145;28;20393;-80
2023/06/01 00:55:11;;;;;;;6.93;3.25;;;16.80;69.90;;;;;;5051858;28;20363;-78
2023/06/01 00:58:01;;;;;;;7.65;3.17;;;16.80;69.00;;;;;;5060737;28;20622;-75
2023/06/01 01:00:53;;;;;;;7.93;3.05;;;16.80;70.60;;;;;;5057921;28;20247;-76
2023/06/01 01:03:46;;;;;;;5.28;2.95;;;16.50;68.00;;;;;;5060757;28;20228;-78
2023/06/01 01:06:48;;;;;;;4.40;3.05;;;16.50;69.80;;;;;;5058335;28;20410;-78
2023/06/01 01:09:45;;;;;;;6.05;3.63;;;16.60;70.90;;;;;;5049793;28;20227;-78
2023/06/01 01:12:42;;;;;;;5.35;3.38;;;16.60;70.30;;;;;;5053794;28;20355;-78
2023/06/01 01:15:41;;;;;;;5.70;3.50;;;16.60;70.10;;;;;;5060659;28;20225;-77
2023/06/01 01:18:37;;;;;;;4.68;3.35;;;16.50;70.20;;;;;;5056882;28;20216;-79
2023/06/01 01:21:32;;;;;;;6.05;2.78;;;16.30;68.80;;;;;;5060260;28;20220;-84
2023/06/01 01:24:42;;;;;;;6.65;3.15;;;16.20;68.90;;;;;;5057121;28;20595;-83
2023/06/01 01:27:40;;;;;;;6.60;2.90;;;16.40;71.60;;;;;;5058630;28;20223;-77
2023/06/01 01:30:31;;;;;;;5.68;2.90;;;16.40;71.30;;;;;;5058094;28;20578;-79
2023/06/01 01:33:21;;;;;;;6.70;3.38;;;16.30;69.70;;;;;;5056426;28;20216;-77
2023/06/01 01:36:11;;;;;;;5.18;2.97;;;16.20;69.60;;;;;;5055281;28;20220;-77
2023/06/01 01:39:00;;;;;;;6.25;3.00;;;16.40;71.30;;;;;;5066849;28;20215;-78
2023/06/01 01:41:50;;;;;;;4.88;2.75;;;16.40;71.20;;;;;;5069829;28;20251;-78
2023/06/01 01:44:38;;;;;;;6.15;2.80;;;16.40;70.30;;;;;;5082745;28;20257;-75
2023/06/01 01:47:46;;;;;;;5.20;2.85;;;16.20;69.40;;;;;;5047341;28;20235;-76
2023/06/01 01:50:40;;;;;;;5.85;3.00;;;16.30;71.30;;;;;;5055912;28;20332;-76
2023/06/01 01:53:31;;;;;;;5.70;2.85;;;16.40;72.10;;;;;;5066371;28;20223;-76
2023/06/01 01:56:20;;;;;;;4.93;2.83;;;16.30;69.80;;;;;;5074974;28;20224;-75
2023/06/01 01:59:10;;;;;;;4.80;2.80;;;16.10;70.20;;;;;;5079467;28;20230;-75
2023/06/01 02:02:00;;;;;;;6.13;2.95;;;16.20;71.80;;;;;;5055840;28;20346;-77
2023/06/01 02:04:51;;;;;;;4.00;2.58;;;16.20;69.80;;;;;;5042885;28;20216;-75
2023/06/01 02:07:40;;;;;;;3.70;2.42;;;16.10;69.10;;;;;;5061558;28;20231;-77
2023/06/01 02:10:29;;;;;;;6.40;2.78;;;16.20;70.00;;;;;;5061415;28;20317;-76
2023/06/01 02:13:18;;;;;;;4.78;2.90;;;16.10;70.20;;;;;;5080120;28;20226;-75
2023/06/01 02:16:07;;;;;;;5.03;2.80;;;16.10;70.20;;;;;;5081861;28;20233;-77
2023/06/01 02:18:57;;;;;;;5.22;2.70;;;15.90;68.50;;;;;;5042914;28;20564;-76
2023/06/01 02:21:48;;;;;;;3.85;2.85;;;15.80;70.00;;;;;;5073099;28;20223;-76
2023/06/01 02:24:37;;;;;;;5.85;2.85;;;16.00;70.20;;;;;;5059715;28;20229;-75
2023/06/01 02:27:26;;;;;;;4.32;2.63;;;16.00;69.40;;;;;;5068909;28;20223;-76
2023/06/01 02:30:15;;;;;;;5.82;2.83;;;15.90;70.40;;;;;;5048686;28;20223;-75
2023/06/01 02:33:04;;;;;;;5.25;2.80;;;15.80;70.80;;;;;;5070355;28;20231;-76
2023/06/01 02:35:53;;;;;;;6.13;2.72;;;15.70;71.50;;;;;;5088069;28;20571;-77
2023/06/01 02:38:43;;;;;;;6.00;2.70;;;15.70;70.30;;;;;;5069086;28;20956;-75
2023/06/01 02:41:32;;;;;;;4.85;2.35;;;15.80;71.80;;;;;;5049637;28;20223;-79
2023/06/01 02:44:21;;;;;;;4.65;2.50;;;15.90;70.70;;;;;;5052469;28;20277;-78
2023/06/01 02:47:10;;;;;;;4.28;2.60;;;15.80;71.10;;;;;;5051443;28;20232;-78
2023/06/01 02:49:59;;;;;;;6.55;2.60;;;15.80;71.70;;;;;;5051384;28;20216;-79
2023/06/01 02:52:48;;;;;;;5.80;2.70;;;15.80;70.30;;;;;;5045193;28;20223;-78
2023/06/01 02:55:38;;;;;;;3.28;2.45;;;15.90;71.50;;;;;;5057105;28;20304;-76
2023/06/01 02:58:46;;;;;;;7.25;2.60;;;16.00;71.00;;;;;;5074870;28;20401;-76
2023/06/01 03:01:53;;;;;;;6.95;2.90;;;15.80;69.80;;;;;;5070431;28;20738;-87
2023/06/01 03:04:45;;;;;;;6.18;2.78;;;15.90;70.70;;;;;;5036606;28;20223;-80
2023/06/01 03:07:34;;;;;;;4.72;2.58;;;15.90;70.70;;;;;;5064251;28;20239;-80
2023/06/01 03:10:31;;;;;;;4.68;2.58;;;16.00;70.80;;;;;;5061174;28;20228;-79
2023/06/01 03:13:34;;;;;;;4.53;2.50;;;16.10;70.00;;;;;;5065148;28;20223;-78
2023/06/01 03:16:23;;;;;;;5.38;2.42;;;16.10;70.90;;;;;;5051339;28;20220;-82
2023/06/01 03:19:24;;;;;;;4.75;2.45;;;16.00;69.50;;;;;;5056970;28;20603;-82
2023/06/01 03:22:17;;;;;;;8.75;2.92;;;16.20;70.80;;;;;;5049560;28;20957;-78
2023/06/01 03:25:08;;;;;;;6.78;2.92;;;16.20;70.00;;;;;;5047249;28;20307;-77
2023/06/01 03:27:57;;;;;;;9.68;2.97;;;16.30;70.90;;;;;;5064911;28;20216;-78
2023/06/01 03:30:47;;;;;;;5.82;2.67;;;16.20;70.40;;;;;;5050690;28;20753;-78
2023/06/01 03:33:35;;;;;;;3.83;2.45;;;16.30;69.40;;;;;;5060728;28;20223;-77
2023/06/01 03:36:25;;;;;;;6.50;2.67;;;16.40;70.50;;;;;;5076131;28;20779;-77
2023/06/01 03:39:15;;;;;;;6.63;2.70;;;16.50;69.50;;;;;;5069379;28;21021;-77
2023/06/01 03:42:09;;;;;;;4.95;2.80;;;16.40;69.60;;;;;;5061315;28;20239;-75
2023/06/01 03:44:59;;;;;;;5.10;2.50;;;16.50;71.30;;;;;;5049599;28;20252;-77
2023/06/01 03:47:49;;;;;;;8.80;3.00;;;16.70;71.10;;;;;;5072692;28;20883;-76
2023/06/01 03:50:38;;;;;;;8.23;2.95;;;16.80;70.20;;;;;;5070013;28;20306;-79
2023/06/01 03:53:28;;;;;;;16.27;3.15;;;16.80;70.80;;;;;;5067832;28;20219;-77
2023/06/01 03:56:19;;;;;;;10.55;2.95;;;16.80;70.20;;;;;;5080174;28;20977;-83
2023/06/01 03:59:10;;;;;;;6.63;3.08;;;17.00;71.10;;;;;;5050618;28;20224;-83
2023/06/01 04:02:02;;;;;;;9.25;3.28;;;17.10;70.40;;;;;;5067396;28;20655;-84
2023/06/01 04:04:54;;;;;;;8.02;3.08;;;17.10;70.00;;;;;;5070292;28;20211;-86
2023/06/01 04:07:44;;;;;;;5.38;2.97;;;17.20;71.40;;;;;;5084818;28;20955;-79
2023/06/01 04:10:33;;;;;;;7.43;2.90;;;17.10;71.50;;;;;;5074980;28;20747;-80
2023/06/01 04:13:22;;;;;;;4.50;2.75;;;17.20;71.00;;;;;;5061167;28;20986;-77
2023/06/01 04:16:11;;;;;;;5.97;3.15;;;17.30;70.40;;;;;;5057567;28;20706;-78
2023/06/01 04:19:02;;;;;;;9.63;3.33;;;17.40;71.70;;;;;;5050427;28;20228;-77
2023/06/01 04:21:55;;;;;;;9.35;3.53;;;17.50;71.60;;;;;;5045728;28;20224;-80
2023/06/01 04:24:43;;;;;;;7.88;3.60;;;17.50;71.30;;;;;;5052546;28;20899;-82
2023/06/01 04:27:36;;;;;;;8.90;3.80;;;17.60;70.60;;;;;;5066598;28;21447;-83
2023/06/01 04:30:25;;;;;;;5.82;3.40;;;17.70;70.50;;;;;;5061834;28;20227;-84
2023/06/01 04:33:15;;;;;;;9.10;3.33;;;17.70;71.50;;;;;;5056910;28;20226;-82
2023/06/01 04:36:09;;;;;;;9.55;3.95;;;17.80;70.70;;;;;;5043677;28;20231;-84
2023/06/01 04:39:01;;;;;;;5.50;3.40;;;17.90;72.50;;;;;;5062753;28;20224;-84
2023/06/01 04:41:53;;;;;;;7.55;3.67;;;18.00;72.00;;;;;;5048896;28;20761;-82
2023/06/01 04:44:42;;;;;;;8.05;3.80;;;18.20;72.60;;;;;;5055562;28;20618;-80
2023/06/01 04:47:32;;;;;;;9.68;3.40;;;18.30;73.50;;;;;;5047768;28;20622;-79
2023/06/01 04:50:21;;;;;;;7.20;3.35;;;18.40;72.40;;;;;;5045744;28;20920;-78
2023/06/01 04:53:10;;;;;;;8.90;3.80;;;18.40;70.90;;;;;;5044571;28;20739;-79
2023/06/01 04:56:01;;;;;;;9.48;4.28;;;18.60;72.40;;;;;;5061528;28;20227;-79
2023/06/01 04:58:52;;;;;;;5.85;3.63;;;18.70;71.00;;;;;;5062680;28;20629;-81
2023/06/01 05:01:41;;;;;;;6.45;3.63;;;18.90;72.00;;;;;;5064506;28;20223;-80
2023/06/01 05:04:30;;;;;;;10.10;3.85;;;19.00;71.60;;;;;;5062463;28;20874;-77
2023/06/01 05:07:21;;;;;;;9.15;4.25;;;19.10;69.80;;;;;;5070638;28;20255;-77
2023/06/01 05:10:11;;;;;;;11.85;4.50;;;19.10;70.80;;;;;;5033431;28;20229;-79
2023/06/01 05:13:09;;;;;;;7.50;3.80;;;19.30;70.80;;;;;;5060630;28;21375;-77
2023/06/01 05:15:59;;;;;;;8.07;4.05;;;19.40;70.00;;;;;;5045818;28;20972;-77
2023/06/01 05:18:49;;;;;;;12.38;4.22;;;19.40;69.30;;;;;;5068952;28;20664;-77
2023/06/01 05:21:38;;;;;;;11.73;3.78;;;19.40;69.60;;;;;;5062161;28;20240;-78
2023/06/01 05:24:27;;;;;;;9.77;4.15;;;19.50;70.90;;;;;;5064542;28;20349;-79
2023/06/01 05:27:16;;;;;;;12.43;3.88;;;19.60;69.20;;;;;;5055841;28;20224;-80
2023/06/01 05:30:08;;;;;;;15.88;4.35;;;19.60;69.00;;;;;;5046294;28;20243;-82
2023/06/01 05:32:57;;;;;;;10.88;3.90;;;19.90;68.10;;;;;;5064829;28;20223;-75
2023/06/01 05:35:46;;;;;;;10.75;3.95;;;20.20;69.00;;;;;;5068747;28;20230;-77
2023/06/01 05:38:39;;;;;;;9.27;3.90;;;20.10;67.30;;;;;;5059679;28;20224;-76
2023/06/01 05:41:28;;;;;;;6.53;3.58;;;20.10;68.00;;;;;;5047872;28;20247;-76
2023/06/01 05:44:18;;;;;;;8.35;3.95;;;20.20;67.70;;;;;;5048819;28;20220;-76
2023/06/01 05:47:08;;;;;;;11.82;4.07;;;20.10;69.00;;;;;;5047771;28;20224;-78
2023/06/01 05:49:58;;;;;;;10.70;4.75;;;20.10;68.60;;;;;;5047633;28;20691;-79
2023/06/01 05:52:47;;;;;;;8.15;3.72;;;20.10;67.90;;;;;;5056852;28;20228;-75
2023/06/01 05:55:36;;;;;;;13.57;4.38;;;20.10;67.30;;;;;;5079846;28;20231;-78
2023/06/01 05:58:25;;;;;;;8.48;3.60;;;20.30;69.20;;;;;;5085800;28;20212;-77
2023/06/01 06:01:16;;;;;;;14.15;3.97;;;20.30;67.60;;;;;;5075418;28;20226;-74
2023/06/01 06:04:10;;;;;;;10.43;3.90;;;20.50;68.30;;;;;;5060657;28;20645;-80
2023/06/01 06:06:59;;;;;;;8.80;4.32;;;20.70;66.60;;;;;;5072757;28;20224;-83
2023/06/01 06:09:48;;;;;;;14.88;4.07;;;20.70;66.90;;;;;;5068025;28;20219;-79
2023/06/01 06:12:37;;;;;;;13.48;4.22;;;20.70;66.30;;;;;;5058622;28;20242;-81
2023/06/01 06:15:26;;;;;;;13.02;4.40;;;20.80;65.70;;;;;;5062956;28;20228;-75
2023/06/01 06:18:15;;;;;;;11.23;4.32;;;20.90;68.10;;;;;;5056893;28;20240;-78
2023/06/01 06:21:06;;;;;;;14.00;4.95;;;21.00;68.00;;;;;;5058228;28;20221;-72
2023/06/01 06:23:58;;;;;;;13.00;4.10;;;20.80;66.10;;;;;;5053693;28;20302;-70
2023/06/01 06:26:48;;;;;;;8.40;3.95;;;20.90;65.40;;;;;;5057105;28;20220;-75
2023/06/01 06:29:37;;;;;;;9.27;4.13;;;21.00;65.40;;;;;;5063084;28;20224;-77
2023/06/01 06:32:26;;;;;;;11.02;3.63;;;21.10;65.90;;;;;;5054401;28;20309;-74
2023/06/01 06:35:15;;;;;;;11.85;3.97;;;21.20;65.20;;;;;;5051876;28;20332;-74
2023/06/01 06:38:05;;;;;;;8.35;3.67;;;21.30;64.00;;;;;;5047756;28;20349;-73
2023/06/01 06:40:57;;;;;;;7.97;3.88;;;21.40;64.90;;;;;;5053562;28;20263;-74
2023/06/01 06:43:46;;;;;;;8.98;3.65;;;22.10;64.50;;;;;;5054463;28;20231;-73
2023/06/01 06:46:35;;;;;;;5.93;3.20;;;22.70;63.10;;;;;;5049090;28;20315;-76
2023/06/01 06:49:27;;;;;;;7.55;3.45;;;22.60;61.00;;;;;;5055927;28;20255;-77
2023/06/01 06:52:16;;;;;;;8.82;3.63;;;22.40;60.60;;;;;;5054730;28;20220;-73
2023/06/01 06:55:07;;;;;;;10.30;3.70;;;22.30;63.20;;;;;;5054172;28;20236;-71
2023/06/01 06:57:56;;;;;;;5.47;3.30;;;22.30;61.50;;;;;;5052385;28;20294;-73
2023/06/01 07:00:45;;;;;;;9.15;3.65;;;22.40;60.40;;;;;;5054142;28;20220;-73
2023/06/01 07:03:34;;;;;;;10.13;3.78;;;22.50;62.10;;;;;;5061272;28;20223;-73
2023/06/01 07:06:23;;;;;;;11.18;3.47;;;22.70;63.00;;;;;;5060708;28;20725;-74
2023/06/01 07:09:12;;;;;;;9.77;3.35;;;22.80;61.40;;;;;;5061821;28;20270;-73
2023/06/01 07:12:02;;;;;;;7.40;3.28;;;22.90;58.90;;;;;;5049188;28;20772;-74
2023/06/01 07:14:51;;;;;;;7.93;3.45;;;23.10;58.00;;;;;;5070528;28;20228;-73
2023/06/01 07:17:41;;;;;;;8.93;3.40;;;23.40;61.10;;;;;;5070957;28;20233;-72
2023/06/01 07:20:30;;;;;;;8.65;3.47;;;23.80;59.50;;;;;;5078323;28;20552;-72
2023/06/01 07:23:19;;;;;;;7.40;2.90;;;24.10;59.40;;;;;;5072777;28;20307;-72
2023/06/01 07:26:08;;;;;;;9.80;3.22;;;24.40;56.20;;;;;;5081238;28;20266;-71
2023/06/01 07:28:59;;;;;;;9.27;2.75;;;24.70;56.00;;;;;;5068338;28;20278;-73
2023/06/01 07:31:50;;;;;;;10.30;3.03;;;25.00;54.30;;;;;;5058732;28;20240;-75
2023/06/01 07:34:39;;;;;;;7.68;3.45;;;25.70;57.00;;;;;;5078507;28;20227;-74
2023/06/01 07:37:28;;;;;;;9.27;3.45;;;26.00;54.50;;;;;;5068294;28;20231;-73
2023/06/01 07:40:17;;;;;;;5.97;3.17;;;26.40;55.30;;;;;;5048848;28;20363;-73
2023/06/01 07:43:05;;;;;;;7.75;2.72;;;26.70;52.30;;;;;;5068904;28;20836;-74
2023/06/01 07:45:57;;;;;;;7.70;2.97;;;27.10;52.90;;;;;;5081917;28;20288;-73
2023/06/01 07:48:46;;;;;;;7.45;2.80;;;27.50;53.50;;;;;;5052566;28;20878;-73
2023/06/01 07:51:36;;;;;;;6.07;2.90;;;27.90;52.20;;;;;;5057747;28;20343;-73
2023/06/01 07:54:25;;;;;;;3.22;2.33;;;28.00;50.10;;;;;;5062227;28;20695;-73
2023/06/01 07:57:14;;;;;;;8.85;3.00;;;28.30;49.90;;;;;;5077371;28;20211;-74
2023/06/01 08:00:12;;;;;;;7.68;2.60;;;28.50;51.10;;;;;;5079443;28;20216;-73
2023/06/01 08:03:07;;;;;;;4.65;2.90;;;28.70;49.80;;;;;;5078453;28;20345;-73
2023/06/01 08:05:57;;;;;;;10.40;3.10;;;28.80;49.30;;;;;;5084408;28;20219;-73
2023/06/01 08:08:49;;;;;;;5.57;2.67;;;28.90;51.50;;;;;;5073664;28;20218;-73
2023/06/01 08:11:41;;;;;;;5.03;2.92;;;29.10;49.40;;;;;;5080681;28;20236;-74
2023/06/01 08:14:32;;;;;;;9.25;2.70;;;29.30;47.30;;;;;;5083832;28;20263;-74
2023/06/01 08:17:21;;;;;;;9.63;3.60;;;29.70;47.40;;;;;;5068103;28;20246;-74
2023/06/01 08:20:12;;;;;;;4.72;2.80;;;29.60;48.50;;;;;;5082671;28;20249;-75
2023/06/01 08:23:02;;;;;;;6.30;2.60;;;29.90;46.60;;;;;;5083338;28;20211;-73
2023/06/01 08:25:52;;;;;;;4.88;2.72;;;29.90;46.40;;;;;;5079728;28;20231;-79
2023/06/01 08:28:41;;;;;;;8.40;2.75;;;30.30;48.90;;;;;;5066378;28;20234;-73
2023/06/01 08:31:30;;;;;;;7.72;3.30;;;30.40;46.60;;;;;;5063336;28;20228;-73
2023/06/01 08:34:20;;;;;;;7.60;3.95;;;30.40;47.70;;;;;;5063826;28;20342;-76
2023/06/01 08:37:10;;;;;;;6.70;2.78;;;30.40;46.70;;;;;;5054582;28;20216;-85
2023/06/01 08:40:00;;;;;;;7.07;2.80;;;30.30;44.90;;;;;;5060206;28;20219;-85
2023/06/01 08:42:58;;;;;;;9.63;3.53;;;30.50;46.60;;;;;;5048498;28;20223;-85
2023/06/01 08:45:48;;;;;;;6.63;2.95;;;30.60;45.00;;;;;;5046238;28;20257;-85
2023/06/01 08:48:38;;;;;;;9.35;3.20;;;30.70;47.30;;;;;;5075465;28;20222;-84
2023/06/01 08:51:28;;;;;;;13.20;3.30;;;31.00;46.40;;;;;;5068519;28;20323;-84
2023/06/01 08:54:19;;;;;;;4.90;3.60;;;31.30;47.50;;;;;;5069867;28;20236;-84
2023/06/01 08:57:09;;;;;;;7.28;3.50;;;31.70;46.70;;;;;;5052247;28;20641;-83
2023/06/01 08:59:58;;;;;;;9.95;3.40;;;31.60;46.70;;;;;;5053502;28;20345;-84
2023/06/01 09:02:47;;;;;;;7.95;5.07;;;31.50;46.00;;;;;;5059844;28;20231;-83
2023/06/01 09:05:36;;;;;;;9.93;3.50;;;31.50;45.80;;;;;;5045045;28;20353;-83
2023/06/01 09:08:25;;;;;;;7.50;3.47;;;31.40;46.80;;;;;;5040069;28;20693;-83
2023/06/01 09:11:15;;;;;;;7.47;3.53;;;31.70;46.40;;;;;;5057524;28;20262;-85
2023/06/01 09:14:22;;;;;;;7.60;3.10;;;31.70;46.00;;;;;;5063637;28;20236;-86
2023/06/01 09:17:14;;;;;;;10.63;3.53;;;31.60;46.60;;;;;;5071672;28;20221;-85
2023/06/01 09:20:05;;;;;;;8.10;3.42;;;31.90;46.70;;;;;;5068207;28;20215;-86
2023/06/01 09:22:55;;;;;;;7.97;2.97;;;32.30;46.00;;;;;;5056389;28;20238;-86
2023/06/01 09:25:44;;;;;;;9.18;3.85;;;32.40;46.80;;;;;;5061532;28;20334;-85
2023/06/01 09:28:54;;;;;;;6.60;3.45;;;32.80;46.80;;;;;;5079051;28;20238;-86
2023/06/01 09:31:44;;;;;;;5.10;2.88;;;32.70;45.50;;;;;;5069242;28;20220;-90
2023/06/01 09:34:45;;;;;;;5.65;3.40;;;33.20;44.50;;;;;;5063903;28;20228;-86
2023/06/01 09:37:34;;;;;;;6.97;3.10;;;33.40;45.50;;;;;;5078476;28;20697;-86
2023/06/01 09:40:23;;;;;;;9.00;3.60;;;33.90;44.90;;;;;;5069433;28;20310;-85
2023/06/01 09:43:22;;;;;;;4.32;3.17;;;34.30;43.00;;;;;;5063950;28;20261;-83
2023/06/01 09:46:14;;;;;;;7.05;3.70;;;34.70;43.60;;;;;;5068255;28;20223;-83
2023/06/01 09:49:07;;;;;;;13.25;3.60;;;35.50;44.50;;;;;;5088003;28;20215;-84
2023/06/01 09:52:12;;;;;;;6.38;3.20;;;35.70;42.90;;;;;;5065694;28;20571;-84
2023/06/01 09:55:08;;;;;;;5.60;2.92;;;36.30;41.80;;;;;;5085687;28;20671;-84
2023/06/01 09:58:19;;;;;;;6.70;3.58;;;37.30;42.60;;;;;;5072335;28;20294;-82
2023/06/01 10:01:08;;;;;;;5.65;3.30;;;38.50;42.70;;;;;;5065019;28;20310;-84
2023/06/01 10:04:01;;;;;;;6.78;3.30;;;38.90;40.60;;;;;;5068395;28;20227;-84
2023/06/01 10:06:55;;;;;;;4.35;2.63;;;39.40;39.80;;;;;;5047117;28;20303;-83
2023/06/01 10:09:48;;;;;;;8.85;3.15;;;39.10;39.70;;;;;;5063642;28;20706;-81
2023/06/01 10:12:37;;;;;;;22.40;3.40;;;39.10;38.60;;;;;;5077205;28;20286;-84
2023/06/01 10:15:27;;;;;;;11.18;3.00;;;39.20;39.00;;;;;;5064557;28;20227;-83
2023/06/01 10:18:19;;;;;;;5.00;2.78;;;40.10;38.00;;;;;;5080936;28;20236;-82
2023/06/01 10:21:10;;;;;;;9.38;3.33;;;41.10;38.90;;;;;;5091450;28;20634;-85
2023/06/01 10:23:59;;;;;;;8.73;2.92;;;41.50;38.20;;;;;;5061620;28;20226;-84
2023/06/01 10:27:02;;;;;;;7.95;3.10;;;42.00;38.50;;;;;;5068946;28;20246;-84
2023/06/01 10:29:54;;;;;;;8.52;2.67;;;41.90;38.30;;;;;;5062126;28;20681;-84
2023/06/01 10:32:45;;;;;;;6.05;2.70;;;42.80;38.10;;;;;;5077365;28;20211;-82
2023/06/01 10:35:53;;;;;;;6.20;3.03;;;43.80;36.50;;;;;;5073022;28;20605;-83
2023/06/01 10:38:43;;;;;;;5.57;2.83;;;43.80;37.00;;;;;;5065846;28;20633;-83
2023/06/01 10:41:33;;;;;;;4.20;2.50;;;43.70;36.30;;;;;;5084815;28;20242;-83
2023/06/01 10:44:49;;;;;;;10.95;3.03;;;44.70;36.50;;;;;;5073090;28;20225;-82
2023/06/01 10:47:50;;;;;;;8.27;2.53;;;45.10;35.30;;;;;;5039659;28;20658;-83
2023/06/01 10:50:39;;;;;;;8.02;2.67;;;45.70;35.20;;;;;;5061971;28;20313;-83
2023/06/01 10:53:31;;;;;;;15.23;2.90;;;44.90;34.10;;;;;;5068442;28;20220;-82
2023/06/01 10:56:23;;;;;;;5.45;2.50;;;45.40;35.20;;;;;;5058185;28;20212;-82
2023/06/01 10:59:13;;;;;;;6.65;2.60;;;45.40;34.40;;;;;;5049082;28;20651;-83
2023/06/01 11:02:08;;;;;;;5.65;2.50;;;45.70;34.20;;;;;;5078925;28;20354;-84
2023/06/01 11:05:17;;;;;;;5.95;2.72;;;46.30;33.40;;;;;;5054265;28;20665;-84
2023/06/01 11:08:08;;;;;;;8.63;2.97;;;46.50;32.70;;;;;;5060030;28;20269;-83
2023/06/01 11:10:59;;;;;;;6.38;2.92;;;46.20;33.30;;;;;;5071978;28;20229;-83
2023/06/01 11:14:11;;;;;;;6.50;2.83;;;46.80;33.20;;;;;;5062790;28;20219;-84
2023/06/01 11:17:29;;;;;;;9.35;2.80;;;45.70;31.80;;;;;;5072914;28;20230;-84
2023/06/01 11:20:20;;;;;;;9.05;2.90;;;45.70;32.70;;;;;;5079941;28;20655;-84
2023/06/01 11:23:11;;;;;;;7.00;2.72;;;;;;;;;;5091709;28;20234;-83
2023/06/01 11:26:06;;;;;;;12.65;3.10;;;46.10;32.00;;;;;;5070899;28;20700;-84
2023/06/01 11:29:16;;;;;;;7.63;2.70;;;46.90;31.70;;;;;;5061275;28;20292;-84
2023/06/01 11:32:07;;;;;;;6.65;2.70;;;48.30;32.00;;;;;;5058018;28;20663;-84
2023/06/01 11:34:56;;;;;;;8.18;2.85;;;49.10;31.40;;;;;;5059410;28;20211;-84
2023/06/01 11:37:47;;;;;;;7.20;2.80;;;50.40;30.30;;;;;;5066978;28;20222;-83
2023/06/01 11:40:36;;;;;;;10.65;3.28;;;50.90;29.80;;;;;;5073612;28;20224;-84
2023/06/01 11:43:28;;;;;;;10.70;3.45;;;51.00;30.50;;;;;;5073924;28;20234;-83
2023/06/01 11:46:18;;;;;;;12.70;2.92;;;51.30;30.20;;;;;;5064414;28;20221;-84
2023/06/01 11:49:13;;;;;;;8.30;2.90;;;50.40;29.10;;;;;;5061626;28;20702;-83
2023/06/01 11:52:02;;;;;;;8.82;3.00;;;51.00;30.30;;;;;;5078754;28;20223;-84
2023/06/01 11:54:52;;;;;;;8.98;3.00;;;51.80;29.70;;;;;;5091150;28;20230;-85
2023/06/01 11:57:42;;;;;;;8.55;2.80;;;52.10;29.70;;;;;;5072544;28;20216;-85
2023/06/01 12:00:31;;;;;;;17.45;3.00;;;51.60;29.50;;;;;;5064103;28;20228;-83
2023/06/01 12:03:24;;;;;;;8.48;2.78;;;52.20;29.90;;;;;;5058557;28;20223;-85
2023/06/01 12:06:21;;;;;;;6.47;2.60;;;51.70;28.70;;;;;;5054117;28;20219;-85
2023/06/01 12:09:11;;;;;;;7.47;2.72;;;50.00;28.90;;;;;;5067912;28;20221;-85
2023/06/01 12:12:00;;;;;;;5.63;2.65;;;49.40;29.20;;;;;;5073752;28;20246;-85
2023/06/01 12:14:50;;;;;;;5.22;2.63;;;50.00;29.10;;;;;;5069566;28;20227;-85
2023/06/01 12:17:49;;;;;;;9.50;2.50;;;51.40;29.30;;;;;;5083441;28;20283;-87
2023/06/01 12:20:45;;;;;;;12.18;2.72;;;53.00;28.70;;;;;;5087365;28;20230;-82
2023/06/01 12:23:34;;;;;;;8.40;2.63;;;53.90;28.10;;;;;;5063400;28;21840;-83
2023/06/01 12:26:35;;;;;;;10.18;2.65;;;55.60;27.70;;;;;;5073282;28;20729;-85
2023/06/01 12:29:41;;;;;;;8.80;3.00;;;55.80;27.50;;;;;;5047404;28;20211;-84
2023/06/01 12:32:39;;;;;;;5.30;2.53;;;55.90;27.30;;;;;;5063132;28;20730;-85
2023/06/01 12:35:28;;;;;;;5.43;2.53;;;54.40;27.50;;;;;;5083184;28;20238;-85
2023/06/01 12:38:18;;;;;;;5.40;2.72;;;54.10;27.10;;;;;;5071634;28;20225;-84
2023/06/01 12:41:08;;;;;;;7.95;2.88;;;52.10;27.00;;;;;;5071097;28;20313;-85
2023/06/01 12:43:58;;;;;;;7.47;2.97;;;50.60;27.30;;;;;;5067821;28;20300;-84
2023/06/01 12:46:48;;;;;;;6.68;2.80;;;49.40;28.00;;;;;;5068431;28;20237;-83
2023/06/01 12:49:37;;;;;;;8.15;2.70;;;47.80;28.50;;;;;;5078804;28;20235;-84
2023/06/01 12:52:26;;;;;;;6.28;2.50;;;42.00;29.70;;;;;;5057990;28;20230;-82
2023/06/01 12:55:17;;;;;;;8.00;2.85;;;38.50;33.00;;;;;;5080670;28;20230;-82
2023/06/01 12:58:06;;;;;;;7.45;2.78;;;36.70;36.00;;;;;;5066798;28;20262;-81
2023/06/01 13:00:55;;;;;;;13.15;3.35;;;35.30;36.90;;;;;;5070164;28;20226;-82
2023/06/01 13:03:45;;;;;;;7.55;2.70;;;34.60;39.00;;;;;;5077634;28;20312;-82
2023/06/01 13:06:35;;;;;;;4.63;3.05;;;33.80;38.30;;;;;;5074845;28;20235;-81
2023/06/01 13:09:25;;;;;;;8.02;3.30;;;33.20;39.00;;;;;;5079191;28;20304;-81
2023/06/01 13:12:15;;;;;;;6.63;2.60;;;32.50;40.90;;;;;;5063965;28;20758;-81
2023/06/01 13:15:05;;;;;;;5.25;3.20;;;32.10;40.80;;;;;;5071533;28;20546;-82
2023/06/01 13:17:56;;;;;;;8.20;2.92;;;31.60;41.40;;;;;;5070341;28;20774;-81
2023/06/01 13:20:45;;;;;;;10.18;3.30;;;31.50;41.20;;;;;;5053988;28;20263;-82
2023/06/01 13:23:33;;;;;;;10.18;3.03;;;31.10;42.20;;;;;;5058248;28;20232;-82
2023/06/01 13:26:25;;;;;;;26.25;3.33;;;31.00;41.70;;;;;;5075951;28;20248;-82
2023/06/01 13:29:15;;;;;;;8.48;3.30;;;30.80;42.50;;;;;;5067911;28;20223;-81
2023/06/01 13:32:08;;;;;;;5.95;2.92;;;30.60;42.70;;;;;;5065653;28;20782;-82
2023/06/01 13:34:57;;;;;;;6.68;3.10;;;30.30;41.80;;;;;;5064685;28;20216;-80
2023/06/01 13:37:46;;;;;;;7.43;3.60;;;30.00;42.20;;;;;;5067750;28;20724;-81
2023/06/01 13:40:35;;;;;;;10.05;3.25;;;29.80;43.40;;;;;;5066291;28;20223;-81
2023/06/01 13:43:25;;;;;;;5.50;3.20;;;29.90;43.60;;;;;;5065768;28;20232;-81
2023/06/01 13:46:15;;;;;;;7.88;3.50;;;29.80;43.10;;;;;;5083856;28;20215;-82
2023/06/01 13:49:05;;;;;;;8.35;3.00;;;29.60;42.80;;;;;;5082621;28;20222;-81
2023/06/01 13:51:54;;;;;;;9.57;3.10;;;29.30;43.20;;;;;;5064903;28;20229;-81
2023/06/01 13:54:43;;;;;;;7.18;3.15;;;29.10;43.70;;;;;;5084743;28;20223;-81
2023/06/01 13:57:32;;;;;;;7.20;3.33;;;29.10;43.70;;;;;;5070633;28;20299;-80
2023/06/01 14:00:21;;;;;;;8.95;3.28;;;29.20;44.50;;;;;;5068813;28;20222;-82
2023/06/01 14:03:12;;;;;;;5.43;3.10;;;29.10;44.90;;;;;;5069246;28;20215;-80
2023/06/01 14:06:01;;;;;;;8.43;3.30;;;29.10;45.90;;;;;;5069435;28;20227;-82
2023/06/01 14:08:49;;;;;;;6.63;3.30;;;28.90;45.10;;;;;;5060147;28;20306;-80
2023/06/01 14:11:39;;;;;;;6.68;2.95;;;28.90;45.30;;;;;;5054409;28;20280;-82
2023/06/01 14:14:31;;;;;;;9.57;3.55;;;28.80;44.40;;;;;;5068592;28;20235;-83
2023/06/01 14:17:20;;;;;;;7.07;3.28;;;28.80;45.20;;;;;;5047799;28;20226;-83
2023/06/01 14:20:11;;;;;;;6.18;3.20;;;28.60;45.00;;;;;;5051467;28;20609;-81
2023/06/01 14:23:02;;;;;;;6.32;3.30;;;28.60;45.10;;;;;;5074001;28;20596;-82
2023/06/01 14:25:51;;;;;;;15.20;2.95;;;28.50;45.70;;;;;;5046065;28;20761;-82
2023/06/01 14:28:40;;;;;;;6.07;3.20;;;28.30;45.70;;;;;;5050509;28;20306;-83
2023/06/01 14:31:29;;;;;;;6.55;3.25;;;28.30;46.70;;;;;;5067045;28;20671;-81
2023/06/01 14:34:18;;;;;;;8.05;3.22;;;28.30;46.70;;;;;;5049498;28;20237;-82
2023/06/01 14:37:10;;;;;;;7.95;2.88;;;28.40;46.70;;;;;;5052658;28;20224;-83
2023/06/01 14:40:00;;;;;;;8.32;3.42;;;28.30;47.00;;;;;;5055739;28;20313;-83
2023/06/01 14:42:49;;;;;;;10.60;3.17;;;28.30;46.80;;;;;;5051104;28;20757;-83
2023/06/01 14:45:40;;;;;;;7.88;3.72;;;28.30;47.20;;;;;;5087197;28;20399;-82
2023/06/01 14:48:29;;;;;;;9.23;3.10;;;28.10;46.80;;;;;;5070326;28;20229;-83
2023/06/01 14:51:19;;;;;;;5.55;3.33;;;28.10;47.10;;;;;;5050908;28;20262;-82